createdAt,value
2018-07-27T00:00:15.407Z,20.00
2018-07-27T00:02:44.012Z,20.00
2018-07-27T00:05:12.542Z,19.90
2018-07-27T00:07:41.315Z,19.90
2018-07-27T00:10:13.737Z,20.00
2018-07-27T00:12:42.273Z,20.00
2018-07-27T00:15:11.050Z,20.00
2018-07-27T00:17:39.658Z,20.00
2018-07-27T00:20:08.582Z,19.90
2018-07-27T00:22:37.361Z,19.90
2018-07-27T00:25:05.942Z,19.80
2018-07-27T00:27:34.562Z,19.80
2018-07-27T00:30:03.373Z,19.80
2018-07-27T00:32:31.902Z,19.80
2018-07-27T00:35:00.462Z,19.70
2018-07-27T00:37:28.991Z,19.70
2018-07-27T00:39:57.643Z,19.70
2018-07-27T00:42:26.199Z,19.60
2018-07-27T00:44:54.702Z,19.40
2018-07-27T00:47:23.287Z,19.30
2018-07-27T00:49:51.828Z,19.20
2018-07-27T00:52:21.043Z,19.20
2018-07-27T00:54:49.558Z,19.20
2018-07-27T00:57:18.078Z,19.30
2018-07-27T00:59:46.641Z,19.30
2018-07-27T01:02:15.204Z,19.30
2018-07-27T01:04:43.702Z,19.30
2018-07-27T01:07:12.245Z,19.20
2018-07-27T01:09:40.966Z,19.10
2018-07-27T01:12:09.554Z,19.00
2018-07-27T01:14:38.087Z,19.00
2018-07-27T01:17:06.648Z,18.90
2018-07-27T01:19:35.175Z,18.90
2018-07-27T01:22:03.768Z,18.80
2018-07-27T01:24:33.856Z,18.80
2018-07-27T01:27:02.393Z,18.80
2018-07-27T01:29:30.915Z,18.80
2018-07-27T01:31:59.511Z,18.70
2018-07-27T01:34:28.074Z,18.70
2018-07-27T01:36:56.699Z,18.70
2018-07-27T01:39:25.332Z,18.60
2018-07-27T01:41:53.892Z,18.60
2018-07-27T01:44:22.462Z,18.60
2018-07-27T01:46:51.015Z,18.60
2018-07-27T01:49:19.679Z,18.60
2018-07-27T01:51:48.211Z,18.60
2018-07-27T01:54:17.847Z,18.70
2018-07-27T01:56:46.455Z,18.60
2018-07-27T01:59:15.017Z,18.60
2018-07-27T02:01:43.585Z,18.60
2018-07-27T02:04:12.088Z,18.60
2018-07-27T02:06:40.698Z,18.60
2018-07-27T02:09:10.227Z,18.60
2018-07-27T02:11:38.834Z,18.60
2018-07-27T02:14:07.506Z,18.60
2018-07-27T02:16:36.000Z,18.70
2018-07-27T02:19:04.933Z,18.50
2018-07-27T02:21:33.452Z,18.30
2018-07-27T02:24:01.954Z,18.20
2018-07-27T02:26:30.541Z,18.20
2018-07-27T02:28:59.046Z,18.30
2018-07-27T02:31:27.613Z,18.30
2018-07-27T02:33:56.272Z,18.40
2018-07-27T02:36:24.746Z,18.50
2018-07-27T02:38:53.344Z,18.50
2018-07-27T02:41:21.864Z,18.60
2018-07-27T02:43:50.688Z,18.60
2018-07-27T02:46:19.273Z,18.70
2018-07-27T02:48:47.802Z,18.60
2018-07-27T02:51:16.391Z,18.60
2018-07-27T02:53:44.894Z,18.60
2018-07-27T02:56:13.449Z,18.60
2018-07-27T02:58:41.973Z,18.60
2018-07-27T03:01:10.542Z,18.60
2018-07-27T03:03:39.092Z,18.60
2018-07-27T03:06:07.653Z,18.60
2018-07-27T03:08:36.410Z,18.60
2018-07-27T03:11:04.999Z,18.50
2018-07-27T03:13:33.557Z,18.50
2018-07-27T03:16:02.078Z,18.50
2018-07-27T03:18:30.615Z,18.40
2018-07-27T03:20:59.120Z,18.30
2018-07-27T03:26:02.254Z,18.20
2018-07-27T03:28:30.858Z,18.20
2018-07-27T03:30:59.446Z,18.20
2018-07-27T03:33:27.944Z,18.10
2018-07-27T03:35:56.496Z,18.10
2018-07-27T03:38:25.054Z,18.10
2018-07-27T03:40:53.627Z,18.10
2018-07-27T03:43:22.170Z,18.00
2018-07-27T03:45:50.755Z,17.80
2018-07-27T03:48:19.315Z,17.80
2018-07-27T03:50:47.826Z,17.70
2018-07-27T03:53:16.351Z,17.60
2018-07-27T03:55:44.856Z,17.70
2018-07-27T03:58:13.422Z,17.60
2018-07-27T04:00:42.059Z,17.70
2018-07-27T04:03:10.609Z,17.80
2018-07-27T04:05:39.184Z,17.80
2018-07-27T04:08:07.766Z,17.90
2018-07-27T04:10:36.620Z,18.00
2018-07-27T04:13:05.213Z,18.10
2018-07-27T04:15:33.805Z,18.10
2018-07-27T04:18:02.407Z,18.10
2018-07-27T04:20:31.543Z,18.10
2018-07-27T04:23:00.802Z,18.00
2018-07-27T04:25:29.354Z,17.90
2018-07-27T04:27:57.893Z,17.90
2018-07-27T04:30:26.446Z,18.00
2018-07-27T04:32:54.971Z,17.90
2018-07-27T04:35:23.522Z,17.90
2018-07-27T04:37:52.159Z,17.90
2018-07-27T04:40:20.702Z,18.00
2018-07-27T04:42:49.285Z,18.10
2018-07-27T04:45:17.851Z,18.20
2018-07-27T04:47:46.374Z,18.40
2018-07-27T04:50:14.943Z,18.50
2018-07-27T04:52:43.527Z,18.70
2018-07-27T04:55:12.089Z,18.90
2018-07-27T04:57:40.606Z,19.10
2018-07-27T05:00:09.470Z,19.30
2018-07-27T05:02:38.018Z,19.40
2018-07-27T05:05:06.592Z,19.60
2018-07-27T05:07:35.158Z,19.90
2018-07-27T05:10:07.971Z,20.10
2018-07-27T05:12:36.539Z,20.40
2018-07-27T05:15:05.163Z,20.70
2018-07-27T05:17:33.696Z,20.90
2018-07-27T05:20:02.239Z,21.20
2018-07-27T05:22:30.775Z,21.50
2018-07-27T05:24:59.332Z,21.80
2018-07-27T05:27:27.911Z,22.10
2018-07-27T05:29:56.766Z,22.20
2018-07-27T05:32:25.331Z,22.50
2018-07-27T05:34:53.924Z,22.70
2018-07-27T05:37:22.510Z,22.90
2018-07-27T05:39:51.070Z,23.00
2018-07-27T05:42:19.653Z,23.00
2018-07-27T05:44:48.190Z,23.30
2018-07-27T05:47:16.773Z,23.90
2018-07-27T05:49:46.231Z,24.60
2018-07-27T05:52:14.814Z,25.10
2018-07-27T05:54:43.351Z,25.50
2018-07-27T05:57:11.923Z,25.80
2018-07-27T05:59:40.491Z,26.20
2018-07-27T06:02:10.439Z,26.60
2018-07-27T06:04:38.719Z,27.00
2018-07-27T06:07:07.342Z,27.40
2018-07-27T06:09:36.022Z,27.50
2018-07-27T06:12:05.233Z,27.70
2018-07-27T06:14:33.765Z,28.20
2018-07-27T06:17:02.359Z,28.60
2018-07-27T06:19:30.951Z,28.80
2018-07-27T06:21:59.524Z,29.00
2018-07-27T06:24:34.007Z,29.10
2018-07-27T06:27:02.527Z,29.40
2018-07-27T06:29:31.060Z,29.90
2018-07-27T06:31:59.743Z,30.10
2018-07-27T06:34:28.285Z,30.00
2018-07-27T06:36:56.858Z,30.50
2018-07-27T06:39:25.424Z,30.60
2018-07-27T06:41:54.006Z,30.90
2018-07-27T06:44:22.550Z,31.50
2018-07-27T06:46:51.446Z,31.90
2018-07-27T06:49:19.983Z,32.20
2018-07-27T06:51:48.559Z,32.70
2018-07-27T06:54:17.084Z,32.80
2018-07-27T06:56:45.798Z,33.00
2018-07-27T06:59:14.670Z,33.30
2018-07-27T07:01:43.992Z,33.50
2018-07-27T07:04:12.797Z,33.70
2018-07-27T07:06:42.059Z,33.20
2018-07-27T07:09:11.785Z,33.30
2018-07-27T07:11:40.902Z,33.30
2018-07-27T07:14:09.658Z,34.00
2018-07-27T07:16:38.497Z,34.90
2018-07-27T07:19:08.571Z,35.30
2018-07-27T07:21:37.350Z,35.60
2018-07-27T07:24:06.461Z,36.40
2018-07-27T07:26:35.028Z,36.80
2018-07-27T07:29:03.570Z,36.70
2018-07-27T07:31:32.130Z,36.50
2018-07-27T07:34:00.651Z,36.80
2018-07-27T07:36:29.247Z,37.00
2018-07-27T07:38:57.813Z,36.90
2018-07-27T07:41:26.426Z,37.20
2018-07-27T07:43:54.961Z,37.50
2018-07-27T07:46:23.537Z,38.60
2018-07-27T07:48:52.827Z,39.60
2018-07-27T07:51:21.397Z,40.20
2018-07-27T07:53:49.970Z,40.80
2018-07-27T07:56:18.546Z,41.30
2018-07-27T07:58:47.092Z,41.80
2018-07-27T08:01:15.683Z,42.20
2018-07-27T08:03:44.218Z,42.20
2018-07-27T08:06:12.751Z,42.40
2018-07-27T08:08:41.469Z,43.00
2018-07-27T08:11:10.025Z,43.40
2018-07-27T08:16:06.926Z,44.20
2018-07-27T08:18:35.470Z,44.30
2018-07-27T08:21:04.038Z,44.20
2018-07-27T08:23:32.546Z,44.20
2018-07-27T08:27:04.760Z,44.40
2018-07-27T08:29:34.946Z,44.20
2018-07-27T08:32:03.974Z,45.00
2018-07-27T08:34:32.518Z,45.10
2018-07-27T08:39:30.536Z,45.70
2018-07-27T08:41:59.151Z,46.10
2018-07-27T08:44:29.035Z,46.30
2018-07-27T08:46:58.425Z,46.40
2018-07-27T08:49:27.406Z,45.40
2018-07-27T08:51:56.518Z,44.20
2018-07-27T08:54:25.025Z,44.40
2018-07-27T08:56:53.531Z,45.00
2018-07-27T08:59:22.205Z,45.70
2018-07-27T09:01:50.975Z,46.00
2018-07-27T09:04:19.550Z,46.60
2018-07-27T09:06:48.150Z,46.70
2018-07-27T09:09:17.750Z,46.40
2018-07-27T09:11:46.322Z,45.90
2018-07-27T09:14:17.881Z,45.90
2018-07-27T09:16:46.455Z,45.90
2018-07-27T09:19:15.035Z,46.10
2018-07-27T09:21:43.907Z,45.70
2018-07-27T09:24:12.505Z,45.70
2018-07-27T09:26:41.014Z,46.10
2018-07-27T09:29:09.545Z,46.10
2018-07-27T09:31:38.110Z,46.00
2018-07-27T09:34:06.800Z,45.70
2018-07-27T09:36:35.335Z,44.10
2018-07-27T09:39:04.194Z,43.40
2018-07-27T09:41:32.720Z,42.20
2018-07-27T09:44:01.263Z,40.40
2018-07-27T09:46:29.805Z,39.10
2018-07-27T09:48:58.615Z,38.30
2018-07-27T09:51:27.182Z,37.10
2018-07-27T09:53:55.781Z,36.50
2018-07-27T09:56:24.262Z,36.10
2018-07-27T09:58:53.466Z,35.90
2018-07-27T10:01:22.564Z,35.30
2018-07-27T10:04:09.689Z,35.10
2018-07-27T10:07:00.047Z,35.40
2018-07-27T10:09:29.239Z,35.50
2018-07-27T10:11:58.370Z,34.60
2018-07-27T10:14:27.413Z,34.40
2018-07-27T10:16:55.987Z,34.30
2018-07-27T10:19:24.514Z,34.30
2018-07-27T10:21:53.080Z,34.30
2018-07-27T10:24:21.649Z,34.10
2018-07-27T10:26:50.240Z,34.40
2018-07-27T10:29:19.037Z,34.90
2018-07-27T10:31:47.626Z,35.10
2018-07-27T10:34:16.155Z,35.20
2018-07-27T10:36:45.280Z,35.50
2018-07-27T10:39:13.834Z,35.80
2018-07-27T10:41:42.334Z,35.90
2018-07-27T10:44:10.970Z,35.60
2018-07-27T10:46:39.521Z,35.10
2018-07-27T10:49:08.231Z,34.70
2018-07-27T10:51:37.555Z,34.50
2018-07-27T10:54:06.454Z,34.40
2018-07-27T10:56:35.005Z,34.60
2018-07-27T10:59:03.621Z,35.00
2018-07-27T11:01:32.136Z,34.90
2018-07-27T11:04:00.704Z,34.80
2018-07-27T11:06:29.223Z,34.80
2018-07-27T11:08:58.810Z,35.20
2018-07-27T11:11:27.400Z,35.20
2018-07-27T11:13:55.955Z,34.90
2018-07-27T11:16:24.588Z,34.90
2018-07-27T11:18:53.089Z,35.10
2018-07-27T11:21:21.657Z,35.30
2018-07-27T11:23:50.246Z,35.70
